GLO1803 SBRJ-SBBR
Flight info
| Callsign | GLO1803 |
|---|---|
| Flight time | N/A |
| Altitude | 34000 |
| Route | MUDKA UM409 ISIPI |
| Aircraft | B38M/M-SDE1FGHILORVWXY/HB1 |
Departure
| Time | 2026-05-01 14:12 |
|---|---|
| Airport | Santos Dumont Airport (SBRJ) |
Arrival
| Time | N/A |
|---|---|
| Airport | Presidente Juscelino Kubitschek International Airport (SBBR) |
| Time | Latitude | Longitude | Altitude | Speed | Heading |
|---|---|---|---|---|---|
| 2026-05-01 13:40 | -22.91169 | -43.16583 | 25 ft | 0 kts | 266° |
| 2026-05-01 14:02 | -22.91167 | -43.16560 | 6 ft | 4 kts | 265° |
| 2026-05-01 14:03 | -22.91167 | -43.16532 | 29 ft | 4 kts | 283° |
| 2026-05-01 14:03 | -22.91177 | -43.16516 | 27 ft | 3 kts | 355° |
| 2026-05-01 14:03 | -22.91201 | -43.16514 | 28 ft | 3 kts | 356° |
| 2026-05-01 14:03 | -22.91205 | -43.16514 | 29 ft | 0 kts | 356° |
| 2026-05-01 14:08 | -22.91198 | -43.16514 | 25 ft | 3 kts | 356° |
| 2026-05-01 14:08 | -22.91180 | -43.16515 | 25 ft | 3 kts | 356° |
| 2026-05-01 14:09 | -22.91144 | -43.16518 | 26 ft | 9 kts | 356° |
| 2026-05-01 14:09 | -22.91040 | -43.16537 | 25 ft | 20 kts | 356° |
| 2026-05-01 14:09 | -22.90889 | -43.16547 | 26 ft | 23 kts | 356° |
| 2026-05-01 14:09 | -22.90728 | -43.16543 | 25 ft | 24 kts | 358° |
| 2026-05-01 14:10 | -22.90568 | -43.16553 | 26 ft | 17 kts | 356° |
| 2026-05-01 14:10 | -22.90499 | -43.16525 | 26 ft | 6 kts | 78° |
| 2026-05-01 14:10 | -22.90496 | -43.16468 | 25 ft | 10 kts | 88° |
| 2026-05-01 14:10 | -22.90484 | -43.16367 | 26 ft | 14 kts | 70° |
| 2026-05-01 14:11 | -22.90490 | -43.16320 | 26 ft | 3 kts | 153° |
| 2026-05-01 14:11 | -22.90494 | -43.16320 | 26 ft | 0 kts | 175° |
| 2026-05-01 14:11 | -22.90581 | -43.16314 | 27 ft | 51 kts | 177° |
| 2026-05-01 14:12 | -22.91249 | -43.16268 | 25 ft | 137 kts | 176° |
| 2026-05-01 14:12 | -22.92322 | -43.16195 | 492 ft | 165 kts | 175° |
| 2026-05-01 14:12 | -22.93497 | -43.15988 | 1262 ft | 179 kts | 159° |
| 2026-05-01 14:12 | -22.94567 | -43.15226 | 2013 ft | 190 kts | 132° |
| 2026-05-01 14:13 | -22.95163 | -43.13894 | 2539 ft | 210 kts | 101° |
| 2026-05-01 14:13 | -22.95374 | -43.12810 | 2841 ft | 233 kts | 107° |
| 2026-05-01 14:13 | -22.96854 | -43.10989 | 3857 ft | 257 kts | 147° |
| 2026-05-01 14:13 | -22.98385 | -43.09890 | 4758 ft | 268 kts | 143° |
| 2026-05-01 14:14 | -22.99886 | -43.08678 | 5862 ft | 271 kts | 141° |
| 2026-05-01 14:14 | -23.01285 | -43.07289 | 6848 ft | 275 kts | 124° |
| 2026-05-01 14:14 | -23.02041 | -43.05396 | 7821 ft | 277 kts | 98° |
| 2026-05-01 14:14 | -23.01963 | -43.03307 | 8774 ft | 281 kts | 74° |
| 2026-05-01 14:15 | -23.01281 | -43.01306 | 9766 ft | 285 kts | 68° |
| 2026-05-01 14:15 | -23.00545 | -42.99280 | 10591 ft | 295 kts | 68° |
| 2026-05-01 14:15 | -22.99757 | -42.97153 | 11110 ft | 313 kts | 68° |
| 2026-05-01 14:15 | -22.98918 | -42.94912 | 11708 ft | 326 kts | 67° |
| 2026-05-01 14:16 | -22.98047 | -42.92604 | 12396 ft | 334 kts | 67° |
| 2026-05-01 14:16 | -22.97056 | -42.90312 | 13189 ft | 338 kts | 56° |
| 2026-05-01 14:16 | -22.95429 | -42.88473 | 13931 ft | 342 kts | 34° |
| 2026-05-01 14:16 | -22.93368 | -42.87145 | 14554 ft | 347 kts | 29° |
| 2026-05-01 14:17 | -22.91258 | -42.85844 | 15202 ft | 351 kts | 28° |
| 2026-05-01 14:17 | -22.89108 | -42.84552 | 15852 ft | 355 kts | 25° |
| 2026-05-01 14:17 | -22.86750 | -42.83786 | 16492 ft | 356 kts | 5° |
| 2026-05-01 14:17 | -22.84286 | -42.83859 | 17159 ft | 358 kts | 352° |
| 2026-05-01 14:18 | -22.81791 | -42.84199 | 17769 ft | 362 kts | 351° |
| 2026-05-01 14:18 | -22.79288 | -42.84572 | 18393 ft | 365 kts | 350° |
| 2026-05-01 14:18 | -22.76758 | -42.84950 | 18916 ft | 368 kts | 350° |
| 2026-05-01 14:18 | -22.75073 | -42.85206 | 19268 ft | 370 kts | 350° |
| 2026-05-01 14:19 | -22.71648 | -42.85740 | 19967 ft | 374 kts | 349° |
| 2026-05-01 14:19 | -22.69068 | -42.86167 | 20489 ft | 376 kts | 349° |
| 2026-05-01 14:19 | -22.66473 | -42.86597 | 21012 ft | 379 kts | 349° |
| 2026-05-01 14:19 | -22.63852 | -42.87031 | 21542 ft | 382 kts | 349° |
| 2026-05-01 14:20 | -22.61213 | -42.87469 | 22061 ft | 385 kts | 349° |
| 2026-05-01 14:20 | -22.55874 | -42.88354 | 23119 ft | 391 kts | 349° |
| 2026-05-01 14:20 | -22.53173 | -42.88801 | 23651 ft | 395 kts | 349° |
| 2026-05-01 14:21 | -22.50449 | -42.89252 | 24115 ft | 398 kts | 349° |
| 2026-05-01 14:21 | -22.47707 | -42.89706 | 24580 ft | 400 kts | 348° |
| 2026-05-01 14:21 | -22.44943 | -42.90164 | 25037 ft | 403 kts | 348° |
| 2026-05-01 14:22 | -22.39358 | -42.91087 | 25919 ft | 409 kts | 348° |
| 2026-05-01 14:22 | -22.36533 | -42.91554 | 26371 ft | 412 kts | 348° |
| 2026-05-01 14:22 | -22.33690 | -42.92024 | 26815 ft | 415 kts | 348° |
| 2026-05-01 14:22 | -22.30822 | -42.92499 | 27252 ft | 418 kts | 348° |
| 2026-05-01 14:23 | -22.27937 | -42.92976 | 27670 ft | 421 kts | 348° |
| 2026-05-01 14:23 | -22.25032 | -42.93456 | 28088 ft | 424 kts | 348° |
| 2026-05-01 14:23 | -22.22103 | -42.93940 | 28469 ft | 427 kts | 348° |
| 2026-05-01 14:23 | -22.19159 | -42.94454 | 28874 ft | 429 kts | 344° |
| 2026-05-01 14:24 | -22.16376 | -42.95545 | 29260 ft | 425 kts | 328° |
| 2026-05-01 14:24 | -22.14004 | -42.97419 | 29638 ft | 423 kts | 314° |
| 2026-05-01 14:24 | -22.11874 | -42.99623 | 29977 ft | 427 kts | 313° |
| 2026-05-01 14:24 | -22.09786 | -43.01848 | 30339 ft | 429 kts | 312° |
| 2026-05-01 14:25 | -22.07682 | -43.04138 | 30686 ft | 431 kts | 312° |
| 2026-05-01 14:25 | -22.05594 | -43.06435 | 31019 ft | 433 kts | 311° |
| 2026-05-01 14:25 | -22.03470 | -43.08788 | 31354 ft | 436 kts | 311° |
| 2026-05-01 14:25 | -22.01355 | -43.11135 | 31696 ft | 438 kts | 311° |
| 2026-05-01 14:26 | -21.99228 | -43.13497 | 32029 ft | 440 kts | 311° |
| 2026-05-01 14:26 | -21.94946 | -43.18250 | 32679 ft | 444 kts | 311° |
| 2026-05-01 14:26 | -21.92788 | -43.20644 | 32997 ft | 447 kts | 311° |
| 2026-05-01 14:27 | -21.90615 | -43.23053 | 33332 ft | 448 kts | 311° |
| 2026-05-01 14:27 | -21.88449 | -43.25453 | 33759 ft | 448 kts | 311° |
| 2026-05-01 14:27 | -21.86276 | -43.27860 | 34132 ft | 448 kts | 311° |
| 2026-05-01 14:28 | -21.79797 | -43.35031 | 34195 ft | 443 kts | 311° |
| 2026-05-01 14:28 | -21.75387 | -43.39659 | 34198 ft | 444 kts | 315° |
| 2026-05-01 14:29 | -21.70815 | -43.44135 | 34196 ft | 445 kts | 314° |
| 2026-05-01 14:30 | -21.61710 | -43.53115 | 34201 ft | 445 kts | 315° |
| 2026-05-01 14:31 | -21.54399 | -43.59231 | 34230 ft | 449 kts | 327° |
| 2026-05-01 14:31 | -21.48997 | -43.62619 | 34266 ft | 450 kts | 327° |
| 2026-05-01 14:32 | -21.43572 | -43.65984 | 34307 ft | 450 kts | 327° |
| 2026-05-01 14:32 | -21.38138 | -43.69347 | 34347 ft | 451 kts | 327° |
| 2026-05-01 14:33 | -21.32706 | -43.72706 | 34376 ft | 451 kts | 327° |
| 2026-05-01 14:33 | -21.27272 | -43.76073 | 34373 ft | 451 kts | 326° |
| 2026-05-01 14:34 | -21.21956 | -43.79553 | 34374 ft | 451 kts | 326° |
| 2026-05-01 14:34 | -21.16590 | -43.83049 | 34353 ft | 451 kts | 326° |
| 2026-05-01 14:35 | -21.11228 | -43.86536 | 34313 ft | 452 kts | 326° |
| 2026-05-01 14:35 | -21.05855 | -43.90028 | 34269 ft | 452 kts | 326° |
| 2026-05-01 14:36 | -21.00477 | -43.93519 | 34226 ft | 452 kts | 326° |
| 2026-05-01 14:36 | -20.95966 | -43.96446 | 34195 ft | 452 kts | 326° |
| 2026-05-01 14:37 | -20.90584 | -43.99934 | 34195 ft | 452 kts | 326° |
| 2026-05-01 14:37 | -20.85232 | -44.03401 | 34185 ft | 453 kts | 326° |
| 2026-05-01 14:38 | -20.79847 | -44.06886 | 34189 ft | 453 kts | 326° |
| 2026-05-01 14:38 | -20.74463 | -44.10388 | 34190 ft | 453 kts | 326° |
| 2026-05-01 14:39 | -20.69087 | -44.13898 | 34188 ft | 453 kts | 326° |
| 2026-05-01 14:39 | -20.63705 | -44.17400 | 34185 ft | 453 kts | 326° |
| 2026-05-01 14:40 | -20.58299 | -44.20876 | 34183 ft | 454 kts | 326° |
| 2026-05-01 14:40 | -20.52897 | -44.24351 | 34175 ft | 454 kts | 327° |
| 2026-05-01 14:41 | -20.47485 | -44.27830 | 34179 ft | 454 kts | 327° |
| 2026-05-01 14:41 | -20.42083 | -44.31305 | 34172 ft | 454 kts | 327° |
| 2026-05-01 14:42 | -20.36667 | -44.34789 | 34172 ft | 454 kts | 327° |
| 2026-05-01 14:42 | -20.31257 | -44.38267 | 34166 ft | 454 kts | 327° |
| 2026-05-01 14:43 | -20.25846 | -44.41743 | 34170 ft | 454 kts | 327° |
| 2026-05-01 14:43 | -20.20431 | -44.45218 | 34170 ft | 454 kts | 327° |
| 2026-05-01 14:44 | -20.15015 | -44.48692 | 34167 ft | 454 kts | 327° |
| 2026-05-01 14:44 | -20.06891 | -44.53899 | 34155 ft | 454 kts | 327° |
| 2026-05-01 14:45 | -19.98763 | -44.59102 | 34162 ft | 455 kts | 327° |
| 2026-05-01 14:46 | -19.93344 | -44.62568 | 34158 ft | 455 kts | 327° |
| 2026-05-01 14:46 | -19.85251 | -44.67738 | 34154 ft | 454 kts | 327° |
| 2026-05-01 14:47 | -19.79837 | -44.71194 | 34150 ft | 454 kts | 327° |
| 2026-05-01 14:48 | -19.71705 | -44.76379 | 34150 ft | 454 kts | 327° |
| 2026-05-01 14:48 | -19.63576 | -44.81555 | 34146 ft | 454 kts | 327° |
| 2026-05-01 14:49 | -19.52726 | -44.88455 | 34139 ft | 455 kts | 327° |
| 2026-05-01 14:50 | -19.41871 | -44.95347 | 34133 ft | 455 kts | 327° |
| 2026-05-01 14:51 | -19.33720 | -45.00515 | 34136 ft | 455 kts | 327° |
| 2026-05-01 14:52 | -19.25569 | -45.05677 | 34131 ft | 455 kts | 327° |
| 2026-05-01 14:53 | -19.17414 | -45.10836 | 34132 ft | 455 kts | 327° |
| 2026-05-01 14:53 | -19.11974 | -45.14274 | 34124 ft | 455 kts | 327° |
| 2026-05-01 14:54 | -19.06540 | -45.17705 | 34126 ft | 455 kts | 327° |
| 2026-05-01 14:54 | -19.01098 | -45.21139 | 34122 ft | 456 kts | 327° |
| 2026-05-01 14:55 | -18.95652 | -45.24573 | 34116 ft | 456 kts | 328° |
| 2026-05-01 14:55 | -18.90200 | -45.28007 | 34120 ft | 456 kts | 327° |
| 2026-05-01 14:56 | -18.84748 | -45.31439 | 34123 ft | 457 kts | 328° |
| 2026-05-01 14:56 | -18.79290 | -45.34872 | 34121 ft | 457 kts | 328° |
| 2026-05-01 14:57 | -18.73824 | -45.38308 | 34125 ft | 457 kts | 327° |
| 2026-05-01 14:57 | -18.65660 | -45.43435 | 34117 ft | 458 kts | 328° |
| 2026-05-01 14:58 | -18.60183 | -45.46871 | 34121 ft | 458 kts | 328° |
| 2026-05-01 14:58 | -18.54704 | -45.50306 | 34118 ft | 458 kts | 328° |
| 2026-05-01 14:59 | -18.49211 | -45.53747 | 34122 ft | 459 kts | 327° |
| 2026-05-01 14:59 | -18.43746 | -45.57230 | 34120 ft | 459 kts | 323° |
| 2026-05-01 15:00 | -18.36036 | -45.63203 | 34120 ft | 459 kts | 322° |
| 2026-05-01 15:01 | -18.30911 | -45.67203 | 34126 ft | 459 kts | 322° |
| 2026-05-01 15:01 | -18.25775 | -45.71211 | 34123 ft | 460 kts | 322° |
| 2026-05-01 15:02 | -18.20658 | -45.75200 | 34120 ft | 460 kts | 322° |
| 2026-05-01 15:02 | -18.15489 | -45.79226 | 34113 ft | 460 kts | 322° |
| 2026-05-01 15:03 | -18.10341 | -45.83234 | 34123 ft | 461 kts | 322° |
| 2026-05-01 15:03 | -18.05188 | -45.87243 | 34112 ft | 461 kts | 322° |
| 2026-05-01 15:04 | -18.00028 | -45.91253 | 34116 ft | 461 kts | 322° |
| 2026-05-01 15:04 | -17.94867 | -45.95263 | 34110 ft | 462 kts | 323° |
| 2026-05-01 15:05 | -17.89699 | -45.99274 | 34111 ft | 462 kts | 323° |
| 2026-05-01 15:05 | -17.84557 | -46.03262 | 34106 ft | 462 kts | 323° |
| 2026-05-01 15:06 | -17.79376 | -46.07277 | 34098 ft | 463 kts | 323° |
| 2026-05-01 15:06 | -17.74196 | -46.11289 | 34098 ft | 463 kts | 323° |
| 2026-05-01 15:07 | -17.69011 | -46.15301 | 34100 ft | 463 kts | 323° |
| 2026-05-01 15:07 | -17.63823 | -46.19313 | 34093 ft | 463 kts | 323° |
| 2026-05-01 15:08 | -17.58633 | -46.23323 | 34093 ft | 464 kts | 323° |
| 2026-05-01 15:08 | -17.53429 | -46.27341 | 34088 ft | 464 kts | 323° |
| 2026-05-01 15:09 | -17.48227 | -46.31355 | 34085 ft | 465 kts | 323° |
| 2026-05-01 15:09 | -17.43026 | -46.35365 | 34086 ft | 464 kts | 323° |
| 2026-05-01 15:10 | -17.37857 | -46.39348 | 34086 ft | 465 kts | 323° |
| 2026-05-01 15:10 | -17.30047 | -46.45359 | 34087 ft | 465 kts | 323° |
| 2026-05-01 15:11 | -17.22232 | -46.51369 | 34077 ft | 465 kts | 323° |
| 2026-05-01 15:12 | -17.17022 | -46.55371 | 34095 ft | 465 kts | 323° |
| 2026-05-01 15:12 | -17.09490 | -46.61726 | 34100 ft | 465 kts | 319° |
| 2026-05-01 15:14 | -16.97192 | -46.72679 | 34087 ft | 464 kts | 319° |
| 2026-05-01 15:14 | -16.89800 | -46.79235 | 34096 ft | 465 kts | 319° |
| 2026-05-01 15:15 | -16.79952 | -46.87959 | 33763 ft | 458 kts | 319° |
| 2026-05-01 15:16 | -16.75062 | -46.92285 | 32224 ft | 462 kts | 320° |
| 2026-05-01 15:16 | -16.70204 | -46.96581 | 31214 ft | 454 kts | 320° |
| 2026-05-01 15:17 | -16.65407 | -47.00820 | 30060 ft | 451 kts | 320° |
| 2026-05-01 15:18 | -16.58271 | -47.07121 | 28306 ft | 443 kts | 321° |
| 2026-05-01 15:18 | -16.55932 | -47.09184 | 27767 ft | 440 kts | 321° |
| 2026-05-01 15:19 | -16.48974 | -47.15321 | 26173 ft | 433 kts | 321° |
| 2026-05-01 15:19 | -16.44390 | -47.19359 | 25147 ft | 429 kts | 322° |
| 2026-05-01 15:19 | -16.42115 | -47.21362 | 24642 ft | 428 kts | 322° |
| 2026-05-01 15:20 | -16.37552 | -47.25303 | 23586 ft | 426 kts | 323° |
| 2026-05-01 15:20 | -16.35239 | -47.27230 | 23034 ft | 424 kts | 323° |
| 2026-05-01 15:20 | -16.32951 | -47.29144 | 22557 ft | 420 kts | 323° |
| 2026-05-01 15:21 | -16.30690 | -47.31038 | 22099 ft | 416 kts | 323° |
| 2026-05-01 15:21 | -16.28446 | -47.32916 | 21646 ft | 412 kts | 323° |
| 2026-05-01 15:21 | -16.26222 | -47.34778 | 21196 ft | 409 kts | 323° |
| 2026-05-01 15:21 | -16.24010 | -47.36629 | 20748 ft | 406 kts | 323° |
| 2026-05-01 15:22 | -16.19640 | -47.40285 | 19869 ft | 401 kts | 323° |
| 2026-05-01 15:22 | -16.18202 | -47.41488 | 19583 ft | 399 kts | 323° |
| 2026-05-01 15:22 | -16.16043 | -47.43292 | 19148 ft | 397 kts | 323° |
| 2026-05-01 15:23 | -16.13895 | -47.45088 | 18715 ft | 396 kts | 323° |
| 2026-05-01 15:23 | -16.11752 | -47.46879 | 18261 ft | 394 kts | 323° |
| 2026-05-01 15:23 | -16.09616 | -47.48662 | 17780 ft | 392 kts | 323° |
| 2026-05-01 15:23 | -16.07501 | -47.50429 | 17320 ft | 389 kts | 323° |
| 2026-05-01 15:24 | -16.05395 | -47.52187 | 16910 ft | 386 kts | 323° |
| 2026-05-01 15:24 | -16.03291 | -47.53939 | 16425 ft | 386 kts | 323° |
| 2026-05-01 15:24 | -16.01207 | -47.55675 | 15990 ft | 383 kts | 323° |
| 2026-05-01 15:24 | -15.99135 | -47.57402 | 15566 ft | 380 kts | 323° |
| 2026-05-01 15:25 | -15.97223 | -47.59291 | 15098 ft | 382 kts | 309° |
| 2026-05-01 15:25 | -15.95997 | -47.61725 | 14707 ft | 382 kts | 288° |
| 2026-05-01 15:25 | -15.95636 | -47.64445 | 14311 ft | 381 kts | 268° |
| 2026-05-01 15:25 | -15.95823 | -47.67192 | 13911 ft | 380 kts | 266° |
| 2026-05-01 15:26 | -15.95996 | -47.69895 | 13408 ft | 381 kts | 266° |
| 2026-05-01 15:26 | -15.96172 | -47.72640 | 12947 ft | 380 kts | 266° |
| 2026-05-01 15:26 | -15.96346 | -47.75354 | 12502 ft | 373 kts | 266° |
| 2026-05-01 15:26 | -15.96518 | -47.78048 | 12093 ft | 364 kts | 266° |
| 2026-05-01 15:27 | -15.96682 | -47.80613 | 11688 ft | 356 kts | 267° |
| 2026-05-01 15:27 | -15.96844 | -47.83151 | 11278 ft | 349 kts | 267° |
| 2026-05-01 15:27 | -15.97001 | -47.85628 | 11050 ft | 336 kts | 267° |
| 2026-05-01 15:28 | -15.97301 | -47.90346 | 10721 ft | 321 kts | 267° |
| 2026-05-01 15:28 | -15.97447 | -47.92636 | 10574 ft | 313 kts | 267° |
| 2026-05-01 15:28 | -15.97588 | -47.94863 | 10407 ft | 306 kts | 267° |
| 2026-05-01 15:29 | -15.97860 | -47.99151 | 9888 ft | 291 kts | 267° |
| 2026-05-01 15:29 | -15.97993 | -48.01224 | 9440 ft | 284 kts | 267° |
| 2026-05-01 15:29 | -15.98248 | -48.05214 | 8752 ft | 270 kts | 267° |
| 2026-05-01 15:30 | -15.98452 | -48.08439 | 8143 ft | 265 kts | 267° |
| 2026-05-01 15:31 | -15.98645 | -48.16403 | 6446 ft | 232 kts | 297° |
| 2026-05-01 15:31 | -15.96331 | -48.18217 | 5928 ft | 208 kts | 354° |
| 2026-05-01 15:32 | -15.93576 | -48.18123 | 5504 ft | 193 kts | 34° |
| 2026-05-01 15:32 | -15.91940 | -48.15923 | 5435 ft | 194 kts | 59° |
| 2026-05-01 15:33 | -15.89829 | -48.12374 | 5462 ft | 194 kts | 59° |
| 2026-05-01 15:34 | -15.88975 | -48.08384 | 5470 ft | 192 kts | 85° |